createdAt,value
2018-11-23T12:18:03.164Z,989.38
2018-11-23T12:19:03.135Z,989.34
2018-11-23T12:20:03.120Z,989.31
2018-11-23T12:21:03.108Z,989.33
2018-11-23T12:22:03.098Z,989.32
2018-11-23T12:23:03.113Z,989.30
2018-11-23T12:24:03.076Z,989.27
2018-11-23T12:25:03.065Z,989.28
2018-11-23T12:26:03.057Z,989.25
2018-11-23T12:27:03.041Z,989.22
2018-11-23T12:28:03.066Z,989.19
2018-11-23T12:29:03.021Z,989.18
2018-11-23T12:30:03.011Z,989.12
2018-11-23T12:31:02.998Z,989.16
2018-11-23T12:32:02.990Z,989.11
2018-11-23T12:33:03.003Z,989.11
2018-11-23T12:34:02.965Z,989.08
2018-11-23T12:35:02.956Z,989.12
2018-11-23T12:36:02.948Z,989.14
2018-11-23T12:37:02.934Z,989.11
2018-11-23T12:38:02.944Z,989.13
2018-11-23T12:39:02.931Z,989.11
2018-11-23T12:40:02.902Z,989.14
2018-11-23T12:41:02.889Z,989.09
2018-11-23T12:42:02.882Z,989.13
2018-11-23T12:43:02.891Z,989.13
2018-11-23T12:44:02.860Z,989.10
2018-11-23T12:45:02.847Z,989.09
2018-11-23T12:46:02.836Z,989.07
2018-11-23T12:47:02.830Z,989.04
2018-11-23T12:48:02.838Z,988.98
2018-11-23T12:49:02.804Z,988.96
2018-11-23T12:50:02.793Z,988.93
2018-11-23T12:51:02.781Z,988.95
2018-11-23T12:52:02.771Z,988.87
2018-11-23T12:53:06.355Z,988.87
2018-11-23T12:54:02.749Z,988.88
2018-11-23T12:55:02.739Z,988.85
2018-11-23T12:56:02.727Z,988.80
2018-11-23T12:57:02.716Z,988.83
2018-11-23T12:58:02.727Z,988.84
2018-11-23T12:59:02.693Z,988.83
2018-11-23T13:00:02.687Z,988.84
2018-11-23T13:01:02.670Z,988.80
2018-11-23T13:02:02.662Z,988.81
2018-11-23T13:03:02.675Z,988.79
2018-11-23T13:04:02.638Z,988.71
2018-11-23T13:05:02.627Z,988.69
2018-11-23T13:06:02.615Z,988.68
2018-11-23T13:07:02.604Z,988.65
2018-11-23T13:08:02.618Z,988.65
2018-11-23T13:09:02.584Z,988.69
2018-11-23T13:10:02.573Z,988.66
2018-11-23T13:11:02.560Z,988.69
2018-11-23T13:12:02.550Z,988.62
2018-11-23T13:13:02.566Z,988.63
2018-11-23T13:14:02.529Z,988.61
2018-11-23T13:15:02.519Z,988.57
2018-11-23T13:16:02.509Z,988.53
2018-11-23T13:17:02.495Z,988.54
2018-11-23T13:18:02.506Z,988.52
2018-11-23T13:19:02.473Z,988.57
2018-11-23T13:20:02.461Z,988.51
2018-11-23T13:21:02.451Z,988.52
2018-11-23T13:22:02.437Z,988.50
2018-11-23T13:23:02.452Z,988.52
2018-11-23T13:24:02.421Z,988.47
2018-11-23T13:25:02.406Z,988.45
2018-11-23T13:26:02.393Z,988.49
2018-11-23T13:27:02.383Z,988.46
2018-11-23T13:28:02.395Z,988.47
2018-11-23T13:29:10.910Z,988.52
2018-11-23T13:30:03.359Z,988.50
2018-11-23T13:31:02.337Z,988.52
2018-11-23T13:32:02.327Z,988.53
2018-11-23T13:33:02.337Z,988.50
2018-11-23T13:34:02.303Z,988.50
2018-11-23T13:35:02.294Z,988.52
2018-11-23T13:36:02.281Z,988.46
2018-11-23T13:37:02.270Z,988.46
2018-11-23T13:38:02.283Z,988.42
2018-11-23T13:39:02.248Z,988.44
2018-11-23T13:40:02.237Z,988.43
2018-11-23T13:41:02.226Z,988.42
2018-11-23T13:42:02.215Z,988.44
2018-11-23T13:43:02.246Z,988.40
2018-11-23T13:44:02.195Z,988.42
2018-11-23T13:45:02.188Z,988.43
2018-11-23T13:46:02.172Z,988.39
2018-11-23T13:47:02.160Z,988.41
2018-11-23T13:48:02.151Z,988.36
2018-11-23T13:49:02.161Z,988.28
2018-11-23T13:50:02.125Z,988.31
2018-11-23T13:51:02.117Z,988.31
2018-11-23T13:52:02.114Z,988.29
2018-11-23T13:53:02.098Z,988.34
2018-11-23T13:54:02.105Z,988.27
2018-11-23T13:55:02.072Z,988.30
2018-11-23T13:56:02.061Z,988.32
2018-11-23T13:57:02.054Z,988.36
2018-11-23T13:58:02.039Z,988.33
2018-11-23T13:59:02.051Z,988.34
2018-11-23T14:00:02.019Z,988.31
2018-11-23T14:01:02.006Z,988.34
2018-11-23T14:02:01.996Z,988.32
2018-11-23T14:03:01.993Z,988.29
2018-11-23T14:04:01.999Z,988.30
2018-11-23T14:05:01.963Z,988.28
2018-11-23T14:06:01.971Z,988.26
2018-11-23T14:07:01.943Z,988.25
2018-11-23T14:08:01.932Z,988.30
2018-11-23T14:09:01.949Z,988.26
2018-11-23T14:10:01.926Z,988.27
2018-11-23T14:11:01.901Z,988.27
2018-11-23T14:12:01.889Z,988.23
2018-11-23T14:13:01.882Z,988.22
2018-11-23T14:14:01.894Z,988.18
2018-11-23T14:15:01.873Z,988.16
2018-11-23T14:16:01.843Z,988.16
2018-11-23T14:17:01.832Z,988.15
2018-11-23T14:18:01.824Z,988.16
2018-11-23T14:19:01.835Z,988.16
2018-11-23T14:20:01.798Z,988.08
2018-11-23T14:21:01.796Z,988.10
2018-11-23T14:22:01.780Z,988.11
2018-11-23T14:23:01.768Z,988.11
2018-11-23T14:24:01.779Z,988.09
2018-11-23T14:25:01.747Z,988.12
2018-11-23T14:26:01.734Z,988.10
2018-11-23T14:27:01.720Z,988.13
2018-11-23T14:28:01.709Z,988.12
2018-11-23T14:29:01.719Z,988.11
2018-11-23T14:30:01.690Z,988.12
2018-11-23T14:31:01.674Z,988.13
2018-11-23T14:32:01.663Z,988.14
2018-11-23T14:33:01.653Z,988.09
2018-11-23T14:34:01.669Z,988.07
2018-11-23T14:35:01.634Z,988.09
2018-11-23T14:36:01.620Z,988.09
2018-11-23T14:37:01.608Z,988.05
2018-11-23T14:38:01.596Z,988.06
2018-11-23T14:39:01.609Z,988.02
2018-11-23T14:40:01.574Z,988.02
2018-11-23T14:41:01.563Z,987.96
2018-11-23T14:42:01.553Z,987.97
2018-11-23T14:43:01.551Z,988.03
2018-11-23T14:44:06.783Z,987.98
2018-11-23T14:45:02.517Z,988.00
2018-11-23T14:46:01.508Z,987.98
2018-11-23T14:47:01.500Z,987.95
2018-11-23T14:48:01.485Z,987.90
2018-11-23T14:49:01.499Z,987.92
2018-11-23T14:50:01.463Z,988.00
2018-11-23T14:51:01.453Z,987.94
2018-11-23T14:52:01.441Z,987.94
2018-11-23T14:53:01.431Z,988.01
2018-11-23T14:54:01.441Z,987.98
2018-11-23T14:55:01.409Z,988.00
2018-11-23T14:56:01.397Z,988.05
2018-11-23T14:57:01.387Z,988.03
2018-11-23T14:58:01.389Z,988.03
2018-11-23T14:59:01.475Z,988.00
2018-11-23T15:00:01.357Z,988.05
2018-11-23T15:01:01.342Z,988.04
2018-11-23T15:02:01.335Z,988.02
2018-11-23T15:03:01.321Z,988.06
2018-11-23T15:04:01.331Z,988.10
2018-11-23T15:05:01.299Z,988.12
2018-11-23T15:06:01.290Z,988.13
2018-11-23T15:07:01.275Z,988.06
2018-11-23T15:08:01.264Z,988.11
2018-11-23T15:09:01.277Z,988.07
2018-11-23T15:10:01.242Z,988.10
2018-11-23T15:11:01.231Z,988.07
2018-11-23T15:12:01.224Z,988.08
2018-11-23T15:13:01.212Z,988.03
2018-11-23T15:14:01.223Z,988.05
2018-11-23T15:15:01.188Z,988.03
2018-11-23T15:16:01.178Z,988.05
2018-11-23T15:17:01.169Z,988.06
2018-11-23T15:18:01.156Z,988.03
2018-11-23T15:19:01.165Z,988.03
2018-11-23T15:20:01.137Z,988.03
2018-11-23T15:21:01.123Z,988.03
2018-11-23T15:22:01.110Z,987.98
2018-11-23T15:23:01.101Z,988.05
2018-11-23T15:24:01.115Z,987.97
2018-11-23T15:25:01.078Z,987.99
2018-11-23T15:26:01.067Z,987.99
2018-11-23T15:27:01.056Z,987.91
2018-11-23T15:28:01.045Z,987.93
2018-11-23T15:29:01.067Z,987.91
2018-11-23T15:30:01.025Z,987.97
2018-11-23T15:31:01.011Z,987.98
2018-11-23T15:32:01.000Z,987.96
2018-11-23T15:33:00.988Z,987.94
2018-11-23T15:34:00.978Z,987.91
2018-11-23T15:35:00.990Z,987.93
2018-11-23T15:36:00.959Z,987.85
2018-11-23T15:37:00.945Z,987.87
2018-11-23T15:38:00.934Z,987.85
2018-11-23T15:39:00.928Z,987.84
2018-11-23T15:40:00.935Z,987.86
2018-11-23T15:41:00.900Z,987.85
2018-11-23T15:42:00.890Z,987.87
2018-11-23T15:43:00.879Z,987.89
2018-11-23T15:44:00.869Z,987.82
2018-11-23T15:45:00.882Z,987.89
2018-11-23T15:46:00.848Z,987.86
2018-11-23T15:47:00.839Z,987.85
2018-11-23T15:48:00.825Z,987.87
2018-11-23T15:49:00.816Z,987.83
2018-11-23T15:50:00.825Z,987.83
2018-11-23T15:51:00.792Z,987.86
2018-11-23T15:52:00.782Z,987.85
2018-11-23T15:53:00.770Z,987.84
2018-11-23T15:54:00.765Z,987.82
2018-11-23T15:55:00.772Z,987.81
2018-11-23T15:56:00.742Z,987.85
2018-11-23T15:57:00.727Z,987.84
2018-11-23T15:58:00.717Z,987.88
2018-11-23T15:59:00.707Z,987.90
2018-11-23T16:00:00.718Z,987.87
2018-11-23T16:01:00.683Z,987.87
2018-11-23T16:02:00.677Z,987.87
2018-11-23T16:03:00.662Z,987.88
2018-11-23T16:04:00.652Z,987.88
2018-11-23T16:05:00.666Z,987.86
2018-11-23T16:06:00.676Z,987.83
2018-11-23T16:07:00.620Z,987.81
2018-11-23T16:08:00.608Z,987.81
2018-11-23T16:09:00.596Z,987.83
2018-11-23T16:10:00.607Z,987.80
2018-11-23T16:11:00.579Z,987.80
2018-11-23T16:12:00.564Z,987.80
2018-11-23T16:13:00.550Z,987.79
2018-11-23T16:14:00.541Z,987.77
2018-11-23T16:15:00.551Z,987.80
2018-11-23T16:16:00.522Z,987.80
2018-11-23T16:17:00.508Z,987.80
2018-11-23T16:18:00.499Z,987.79
2018-11-23T16:19:00.486Z,987.77
2018-11-23T16:20:00.500Z,987.82
2018-11-23T16:21:00.465Z,987.76
2018-11-23T16:22:00.452Z,987.78
2018-11-23T16:23:00.441Z,987.80
2018-11-23T16:24:00.431Z,987.76
2018-11-23T16:25:00.447Z,987.81
2018-11-23T16:26:00.408Z,987.80
2018-11-23T16:27:00.397Z,987.81
2018-11-23T16:28:00.389Z,987.85
2018-11-23T16:29:00.377Z,987.84
2018-11-23T16:30:00.389Z,987.82
2018-11-23T16:31:00.352Z,987.81
2018-11-23T16:32:00.342Z,987.85
2018-11-23T16:33:00.330Z,987.78
2018-11-23T16:34:00.321Z,987.81
2018-11-23T16:35:00.335Z,987.78
2018-11-23T16:36:00.301Z,987.72
2018-11-23T16:37:00.286Z,987.84
2018-11-23T16:38:00.277Z,987.85
2018-11-23T16:39:00.264Z,987.83
2018-11-23T16:40:00.277Z,987.81
2018-11-23T16:41:00.243Z,987.75
2018-11-23T16:42:00.232Z,987.72
2018-11-23T16:43:00.219Z,987.73
2018-11-23T16:44:00.210Z,987.75
2018-11-23T16:45:00.222Z,987.72
2018-11-23T16:46:00.208Z,987.74
2018-11-23T16:47:00.182Z,987.73
2018-11-23T16:48:00.167Z,987.76
2018-11-23T16:49:00.155Z,987.77
2018-11-23T16:50:00.166Z,987.79
2018-11-23T16:51:00.132Z,987.80
2018-11-23T16:52:00.123Z,987.81
2018-11-23T16:53:00.112Z,987.85
2018-11-23T16:54:00.101Z,987.78
2018-11-23T16:55:00.117Z,987.85
2018-11-23T16:56:00.079Z,987.83
2018-11-23T16:57:00.069Z,987.78
2018-11-23T16:58:00.062Z,987.76
2018-11-23T16:59:00.046Z,987.81
2018-11-23T17:00:00.081Z,987.80
2018-11-23T17:01:00.047Z,987.79
2018-11-23T17:02:00.020Z,987.77
2018-11-23T17:03:00.005Z,987.77
2018-11-23T17:03:59.992Z,987.72
2018-11-23T17:05:00.003Z,987.72
2018-11-23T17:05:59.972Z,987.71
2018-11-23T17:06:59.960Z,987.74
2018-11-23T17:07:59.945Z,987.73
2018-11-23T17:08:59.936Z,987.78
2018-11-23T17:09:59.963Z,987.74
2018-11-23T17:10:59.914Z,987.67
2018-11-23T17:11:59.903Z,987.70
2018-11-23T17:12:59.892Z,987.67
2018-11-23T17:13:59.882Z,987.67
2018-11-23T17:14:59.869Z,987.64
2018-11-23T17:15:59.887Z,987.69
2018-11-23T17:16:59.848Z,987.63
2018-11-23T17:17:59.839Z,987.66
2018-11-23T17:18:59.827Z,987.67
2018-11-23T17:19:59.818Z,987.65
2018-11-23T17:20:59.827Z,987.64
2018-11-23T17:21:59.793Z,987.71
2018-11-23T17:22:59.785Z,987.71
2018-11-23T17:23:59.771Z,987.67
2018-11-23T17:24:59.760Z,987.71
2018-11-23T17:25:59.773Z,987.72
2018-11-23T17:26:59.740Z,987.69
2018-11-23T17:27:59.728Z,987.74
2018-11-23T17:28:59.717Z,987.74
2018-11-23T17:29:59.707Z,987.74
2018-11-23T17:30:59.732Z,987.80
2018-11-23T17:31:59.684Z,987.79
2018-11-23T17:32:59.673Z,987.80
2018-11-23T17:33:59.662Z,987.78
2018-11-23T17:34:59.651Z,987.79
2018-11-23T17:35:59.664Z,987.78
2018-11-23T17:36:59.631Z,987.79
2018-11-23T17:37:59.621Z,987.81
2018-11-23T17:38:59.618Z,987.80
2018-11-23T17:39:59.600Z,987.84
2018-11-23T17:40:59.609Z,987.82
2018-11-23T17:41:59.577Z,987.78
2018-11-23T17:42:59.565Z,987.79
2018-11-23T17:43:59.562Z,987.79
2018-11-23T17:44:59.544Z,987.81
2018-11-23T17:45:59.554Z,987.80
2018-11-23T17:46:59.521Z,987.75
2018-11-23T17:47:59.512Z,987.74
2018-11-23T17:48:59.505Z,987.74
2018-11-23T17:49:59.492Z,987.69
2018-11-23T17:50:59.503Z,987.64
2018-11-23T17:51:59.467Z,987.60
2018-11-23T17:52:59.458Z,987.61
2018-11-23T17:53:59.449Z,987.62
2018-11-23T17:54:59.436Z,987.62
2018-11-23T17:55:59.452Z,987.61
2018-11-23T17:56:59.418Z,987.60
2018-11-23T17:57:59.407Z,987.59
2018-11-23T17:58:59.392Z,987.56
2018-11-23T17:59:59.384Z,987.60
2018-11-23T18:00:59.393Z,987.60
2018-11-23T18:01:59.361Z,987.56
2018-11-23T18:02:59.349Z,987.54
2018-11-23T18:03:59.339Z,987.55
2018-11-23T18:04:59.332Z,987.49
2018-11-23T18:05:59.341Z,987.45
2018-11-23T18:06:59.314Z,987.47
2018-11-23T18:07:59.299Z,987.42
2018-11-23T18:08:59.289Z,987.46
2018-11-23T18:09:59.274Z,987.39
2018-11-23T18:10:59.289Z,987.35
2018-11-23T18:11:59.251Z,987.32
2018-11-23T18:12:59.242Z,987.27
2018-11-23T18:13:59.230Z,987.24
2018-11-23T18:14:59.226Z,987.24
2018-11-23T18:15:59.238Z,987.22
2018-11-23T18:16:59.219Z,987.21
2018-11-23T18:17:59.187Z,987.22
2018-11-23T18:18:59.176Z,987.19
2018-11-23T18:19:59.177Z,987.22
2018-11-23T18:20:59.177Z,987.11
2018-11-23T18:21:59.145Z,987.16
2018-11-23T18:22:59.135Z,987.14
2018-11-23T18:23:59.123Z,987.11
2018-11-23T18:24:59.116Z,987.10
2018-11-23T18:25:59.124Z,987.09
2018-11-23T18:26:59.091Z,987.14
2018-11-23T18:27:59.079Z,987.11
2018-11-23T18:28:59.068Z,987.10
2018-11-23T18:29:59.056Z,987.11
2018-11-23T18:30:59.077Z,987.11
2018-11-23T18:31:59.039Z,987.09
2018-11-23T18:32:59.029Z,987.09
2018-11-23T18:33:59.015Z,987.09
2018-11-23T18:34:59.005Z,987.11
2018-11-23T18:35:59.016Z,987.08
2018-11-23T18:36:58.981Z,987.07
2018-11-23T18:37:58.972Z,987.04
2018-11-23T18:38:58.961Z,987.03
2018-11-23T18:39:58.948Z,986.99
2018-11-23T18:40:58.967Z,987.00
2018-11-23T18:41:58.928Z,986.96
2018-11-23T18:42:58.917Z,986.96
2018-11-23T18:43:58.909Z,986.91
2018-11-23T18:44:58.900Z,986.96
2018-11-23T18:45:58.995Z,986.89
2018-11-23T18:46:58.875Z,986.86
2018-11-23T18:47:58.862Z,986.90
2018-11-23T18:48:58.862Z,986.91
2018-11-23T18:49:58.841Z,986.87
2018-11-23T18:50:58.839Z,986.82
2018-11-23T18:51:58.847Z,986.86
2018-11-23T18:52:58.808Z,986.83
2018-11-23T18:53:58.800Z,986.83
2018-11-23T18:54:58.788Z,986.84
2018-11-23T18:55:58.777Z,986.82
2018-11-23T18:56:58.790Z,986.87
2018-11-23T18:57:58.757Z,986.89
2018-11-23T18:58:58.764Z,986.95
2018-11-23T18:59:58.734Z,986.86
2018-11-23T19:00:58.727Z,986.89
2018-11-23T19:01:58.744Z,986.89
2018-11-23T19:02:58.704Z,986.87
2018-11-23T19:03:58.695Z,986.85
2018-11-23T19:04:58.679Z,986.88
2018-11-23T19:05:58.669Z,986.85
2018-11-23T19:06:58.689Z,986.90
2018-11-23T19:07:58.648Z,986.87
2018-11-23T19:08:58.637Z,986.89
2018-11-23T19:09:58.650Z,986.89
2018-11-23T19:10:58.618Z,986.88
2018-11-23T19:11:58.627Z,986.88
2018-11-23T19:12:58.596Z,986.88
2018-11-23T19:13:58.585Z,986.87
2018-11-23T19:14:58.573Z,986.90
2018-11-23T19:15:58.562Z,986.88
2018-11-23T19:16:58.575Z,986.81
2018-11-23T19:17:58.540Z,986.82
2018-11-23T19:18:58.528Z,986.79
2018-11-23T19:19:58.545Z,986.79
2018-11-23T19:20:58.511Z,986.80
2018-11-23T19:21:58.518Z,986.77
2018-11-23T19:22:58.485Z,986.75
2018-11-23T19:23:58.475Z,986.74
2018-11-23T19:24:58.471Z,986.72
2018-11-23T19:25:58.453Z,986.70
2018-11-23T19:26:58.479Z,986.65
2018-11-23T19:27:58.433Z,986.66
2018-11-23T19:28:58.422Z,986.66
2018-11-23T19:29:58.410Z,986.67
2018-11-23T19:30:58.399Z,986.64
2018-11-23T19:31:58.418Z,986.67
2018-11-23T19:32:58.378Z,986.59
2018-11-23T19:33:59.394Z,986.61
2018-11-23T19:34:58.374Z,986.61
2018-11-23T19:35:58.346Z,986.61
2018-11-23T19:36:58.358Z,986.67
2018-11-23T19:37:58.323Z,986.63
2018-11-23T19:38:58.312Z,986.63
2018-11-23T19:39:58.304Z,986.62
2018-11-23T19:40:58.293Z,986.62
2018-11-23T19:41:58.302Z,986.58
2018-11-23T19:42:58.270Z,986.56
2018-11-23T19:43:58.258Z,986.55
2018-11-23T19:44:58.246Z,986.57
2018-11-23T19:45:58.240Z,986.57
2018-11-23T19:46:58.255Z,986.55
2018-11-23T19:47:58.227Z,986.57
2018-11-23T19:48:58.204Z,986.50
2018-11-23T19:49:58.193Z,986.56
2018-11-23T19:50:58.188Z,986.49
2018-11-23T19:51:58.194Z,986.51
2018-11-23T19:52:58.159Z,986.46
2018-11-23T19:53:58.153Z,986.50
2018-11-23T19:54:58.146Z,986.56
2018-11-23T19:55:58.131Z,986.53
2018-11-23T19:56:58.140Z,986.53
2018-11-23T19:57:58.106Z,986.48
2018-11-23T19:58:58.093Z,986.42
2018-11-23T19:59:58.086Z,986.45
2018-11-23T20:00:58.076Z,986.44
2018-11-23T20:01:58.083Z,986.43
2018-11-23T20:02:58.049Z,986.44
2018-11-23T20:03:58.037Z,986.42
2018-11-23T20:04:58.032Z,986.39
2018-11-23T20:05:58.016Z,986.42
2018-11-23T20:06:58.030Z,986.43
2018-11-23T20:07:57.995Z,986.38
2018-11-23T20:08:57.983Z,986.36
2018-11-23T20:09:57.972Z,986.38
2018-11-23T20:10:57.962Z,986.35
2018-11-23T20:11:57.979Z,986.43
2018-11-23T20:12:57.944Z,986.40
2018-11-23T20:13:57.927Z,986.38
2018-11-23T20:14:57.919Z,986.35
2018-11-23T20:15:57.908Z,986.34
2018-11-23T20:16:57.925Z,986.35
2018-11-23T20:17:57.885Z,986.36
2018-11-23T20:18:57.881Z,986.33
2018-11-23T20:19:57.866Z,986.31
2018-11-23T20:20:57.852Z,986.32
2018-11-23T20:21:57.864Z,986.27
2018-11-23T20:22:57.832Z,986.23
2018-11-23T20:23:57.821Z,986.24
2018-11-23T20:24:57.810Z,986.21
2018-11-23T20:25:57.799Z,986.17
2018-11-23T20:26:57.811Z,986.16
2018-11-23T20:27:57.775Z,986.15
2018-11-23T20:28:57.765Z,986.12
2018-11-23T20:29:57.768Z,986.11
2018-11-23T20:30:57.753Z,986.08
2018-11-23T20:31:57.763Z,986.08
2018-11-23T20:32:57.722Z,986.04
2018-11-23T20:33:57.712Z,985.99
2018-11-23T20:34:57.703Z,986.01
2018-11-23T20:35:57.707Z,985.96
2018-11-23T20:36:57.722Z,985.95
2018-11-23T20:37:57.680Z,985.84
2018-11-23T20:38:57.663Z,985.89
2018-11-23T20:39:57.652Z,985.91
2018-11-23T20:40:57.636Z,985.87
2018-11-23T20:41:57.622Z,985.86
2018-11-23T20:42:57.639Z,985.82
2018-11-23T20:43:57.613Z,985.81
2018-11-23T20:44:57.588Z,985.77
2018-11-23T20:45:57.582Z,985.79
2018-11-23T20:46:57.569Z,985.81
2018-11-23T20:47:57.581Z,985.78
2018-11-23T20:48:57.553Z,985.74
2018-11-23T20:49:57.544Z,985.73
2018-11-23T20:50:57.524Z,985.73
2018-11-23T20:51:57.512Z,985.69
2018-11-23T20:52:57.524Z,985.68
2018-11-23T20:53:57.491Z,985.67
2018-11-23T20:54:57.486Z,985.65
2018-11-23T20:55:57.487Z,985.63
2018-11-23T20:56:57.457Z,985.65
2018-11-23T20:57:57.468Z,985.60
2018-11-23T20:58:57.435Z,985.61
2018-11-23T20:59:57.425Z,985.64
2018-11-23T21:00:57.415Z,985.67
2018-11-23T21:01:57.402Z,985.70
2018-11-23T21:02:57.416Z,985.71
2018-11-23T21:03:57.380Z,985.72
2018-11-23T21:04:57.368Z,985.76
2018-11-23T21:05:57.359Z,985.76
2018-11-23T21:06:57.346Z,985.77
2018-11-23T21:07:57.357Z,985.74
2018-11-23T21:08:57.327Z,985.82
2018-11-23T21:09:57.313Z,985.76
2018-11-23T21:10:57.301Z,985.73
2018-11-23T21:11:57.291Z,985.76
2018-11-23T21:12:57.303Z,985.80
2018-11-23T21:13:57.272Z,985.75
2018-11-23T21:14:57.266Z,985.77
2018-11-23T21:15:57.251Z,985.69
2018-11-23T21:16:57.239Z,985.76
2018-11-23T21:17:57.259Z,985.78
2018-11-23T21:18:57.214Z,985.76
2018-11-23T21:19:57.204Z,985.78
2018-11-23T21:20:57.201Z,985.77
2018-11-23T21:21:57.183Z,985.71
2018-11-23T21:22:57.196Z,985.75
2018-11-23T21:23:57.161Z,985.76
2018-11-23T21:24:57.151Z,985.73
2018-11-23T21:25:57.139Z,985.68
2018-11-23T21:26:57.129Z,985.65
2018-11-23T21:27:57.146Z,985.65
2018-11-23T21:28:57.108Z,985.60
2018-11-23T21:29:57.096Z,985.58
2018-11-23T21:30:57.090Z,985.53
2018-11-23T21:31:57.076Z,985.56
2018-11-23T21:32:57.100Z,985.55
2018-11-23T21:33:57.054Z,985.54
2018-11-23T21:34:57.047Z,985.50
2018-11-23T21:35:57.032Z,985.48
2018-11-23T21:36:57.022Z,985.47
2018-11-23T21:37:57.038Z,985.49
2018-11-23T21:38:56.997Z,985.48
2018-11-23T21:39:56.989Z,985.48
2018-11-23T21:40:56.983Z,985.44
2018-11-23T21:41:56.966Z,985.44
2018-11-23T21:42:56.984Z,985.48
2018-11-23T21:43:56.944Z,985.48
2018-11-23T21:44:56.956Z,985.43
2018-11-23T21:45:56.925Z,985.42
2018-11-23T21:46:56.911Z,985.39
2018-11-23T21:47:56.925Z,985.33
2018-11-23T21:48:56.889Z,985.34
2018-11-23T21:49:56.877Z,985.28
2018-11-23T21:50:56.877Z,985.26
2018-11-23T21:51:57.343Z,985.25
2018-11-23T21:52:56.866Z,985.19
2018-11-23T21:53:56.834Z,985.22
2018-11-23T21:54:56.823Z,985.22
2018-11-23T21:55:56.819Z,985.16
2018-11-23T21:56:56.801Z,985.16
2018-11-23T21:57:56.814Z,985.13
2018-11-23T21:58:56.786Z,985.14
2018-11-23T21:59:56.766Z,985.10
2018-11-23T22:00:56.755Z,985.13
2018-11-23T22:01:56.743Z,985.11
2018-11-23T22:02:56.754Z,985.11
2018-11-23T22:03:56.722Z,985.08
2018-11-23T22:04:56.713Z,985.11
2018-11-23T22:05:56.698Z,985.11
2018-11-23T22:06:56.688Z,985.08
2018-11-23T22:07:56.701Z,985.09
2018-11-23T22:08:56.666Z,985.05
2018-11-23T22:09:56.667Z,985.06
2018-11-23T22:10:56.648Z,985.08
2018-11-23T22:11:56.634Z,985.05
2018-11-23T22:12:56.646Z,985.06
2018-11-23T22:13:56.610Z,985.04
2018-11-23T22:14:56.618Z,985.03
2018-11-23T22:15:56.590Z,985.00
2018-11-23T22:16:56.582Z,984.99
2018-11-23T22:17:56.592Z,984.99
2018-11-23T22:18:56.556Z,984.96
2018-11-23T22:19:56.549Z,985.02
2018-11-23T22:20:56.535Z,984.92
2018-11-23T22:21:56.529Z,984.94
2018-11-23T22:22:56.536Z,984.98
2018-11-23T22:24:01.378Z,984.90
2018-11-23T22:24:57.490Z,984.92
2018-11-23T22:25:56.480Z,984.93
2018-11-23T22:26:56.474Z,984.87
2018-11-23T22:27:56.482Z,984.87
2018-11-23T22:28:56.449Z,984.86
2018-11-23T22:29:56.437Z,984.85
2018-11-23T22:30:56.436Z,984.80
2018-11-23T22:31:56.437Z,984.78
2018-11-23T22:32:56.436Z,984.80
2018-11-23T22:33:56.394Z,984.79
2018-11-23T22:34:56.383Z,984.74
2018-11-23T22:35:56.401Z,984.76
2018-11-23T22:36:56.361Z,984.77
2018-11-23T22:37:56.351Z,984.77
2018-11-23T22:38:56.363Z,984.80
2018-11-23T22:39:56.331Z,984.74
2018-11-23T22:40:56.317Z,984.74
2018-11-23T22:41:56.307Z,984.71
2018-11-23T22:42:56.297Z,984.71
2018-11-23T22:43:56.307Z,984.65
2018-11-23T22:44:56.280Z,984.66
2018-11-23T22:45:56.263Z,984.64
2018-11-23T22:46:56.258Z,984.70
2018-11-23T22:47:56.243Z,984.70
2018-11-23T22:48:56.256Z,984.65
2018-11-23T22:49:56.219Z,984.68
2018-11-23T22:50:56.213Z,984.67
2018-11-23T22:51:56.203Z,984.68
2018-11-23T22:52:56.185Z,984.67
2018-11-23T22:53:56.197Z,984.66
2018-11-23T22:54:56.165Z,984.66
2018-11-23T22:55:56.154Z,984.69
2018-11-23T22:56:56.144Z,984.66
2018-11-23T22:57:56.131Z,984.68
2018-11-23T22:58:56.144Z,984.65
2018-11-23T22:59:56.112Z,984.66
2018-11-23T23:00:56.102Z,984.65
2018-11-23T23:01:56.089Z,984.59
2018-11-23T23:02:56.079Z,984.63
2018-11-23T23:03:56.089Z,984.63
2018-11-23T23:04:56.057Z,984.64
2018-11-23T23:05:56.045Z,984.60
2018-11-23T23:06:56.034Z,984.61
2018-11-23T23:07:56.026Z,984.62
2018-11-23T23:08:56.037Z,984.59
2018-11-23T23:09:56.007Z,984.57
2018-11-23T23:10:55.990Z,984.57
2018-11-23T23:11:55.979Z,984.56
2018-11-23T23:12:55.969Z,984.53
2018-11-23T23:13:55.984Z,984.52
2018-11-23T23:14:55.949Z,984.51
2018-11-23T23:15:55.938Z,984.45
2018-11-23T23:16:55.927Z,984.45
2018-11-23T23:17:55.913Z,984.45
2018-11-23T23:18:55.929Z,984.42
2018-11-23T23:19:55.893Z,984.41
2018-11-23T23:20:55.885Z,984.38
2018-11-23T23:21:55.873Z,984.36
2018-11-23T23:22:55.860Z,984.29
2018-11-23T23:23:55.872Z,984.33
2018-11-23T23:24:55.838Z,984.36
2018-11-23T23:25:55.839Z,984.32
2018-11-23T23:26:55.816Z,984.26
2018-11-23T23:27:55.813Z,984.29
2018-11-23T23:28:55.819Z,984.27
2018-11-23T23:29:55.785Z,984.22
2018-11-23T23:30:55.773Z,984.22
2018-11-23T23:31:55.777Z,984.22
2018-11-23T23:32:55.755Z,984.22
2018-11-23T23:33:55.769Z,984.21
2018-11-23T23:34:55.731Z,984.21
2018-11-23T23:35:55.720Z,984.21
2018-11-23T23:36:55.708Z,984.24
2018-11-23T23:37:55.699Z,984.24
2018-11-23T23:38:55.711Z,984.20
2018-11-23T23:39:55.677Z,984.24
2018-11-23T23:40:55.675Z,984.22
2018-11-23T23:41:55.672Z,984.19
2018-11-23T23:42:55.648Z,984.19
2018-11-23T23:43:55.657Z,984.15
2018-11-23T23:44:55.629Z,984.17
2018-11-23T23:45:55.611Z,984.16
2018-11-23T23:46:55.601Z,984.13
2018-11-23T23:47:55.592Z,984.17
2018-11-23T23:48:55.601Z,984.18
2018-11-23T23:49:55.567Z,984.18
2018-11-23T23:50:55.568Z,984.22
2018-11-23T23:51:55.550Z,984.17
2018-11-23T23:52:55.536Z,984.17
2018-11-23T23:53:55.554Z,984.15
2018-11-23T23:54:55.534Z,984.13
2018-11-23T23:55:55.505Z,984.17
2018-11-23T23:56:55.510Z,984.16
2018-11-23T23:57:55.484Z,984.18
2018-11-23T23:58:55.492Z,984.19
2018-11-23T23:59:55.462Z,984.15
